Time;durP1;ratioP1;P1;durP2;ratioP2;P2;SDS_P1;SDS_P2;PMS_P1;PMS_P2;Temp;Humidity;BMP_temperature;BMP_pressure;BME280_temperature;BME280_humidity;BME280_pressure;Samples;Min_cycle;Max_cycle;Signal;HPM_P1;HPM_P2
2021/12/26 18:51:12;;;;;;;7.53;4.07;;;8.50;99.90;;;;;;5194287;23;20242;-72
2021/12/26 18:53:40;;;;;;;9.83;4.43;;;8.70;99.90;;;;;;4897684;29;20329;-78
2021/12/26 18:56:07;;;;;;;8.13;4.30;;;8.60;99.90;;;;;;4897739;29;20211;-79
2021/12/26 18:58:34;;;;;;;6.63;3.70;;;8.70;99.90;;;;;;4897744;29;20670;-77
2021/12/26 19:01:01;;;;;;;7.80;4.10;;;8.60;99.90;;;;;;4897676;29;20237;-74
2021/12/26 19:03:29;;;;;;;7.93;4.20;;;8.70;99.90;;;;;;4897593;29;20218;-76
2021/12/26 19:05:56;;;;;;;11.80;4.40;;;8.80;99.90;;;;;;4897854;29;20266;-73
2021/12/26 19:08:24;;;;;;;8.33;4.37;;;8.80;99.90;;;;;;4897572;29;20211;-72
2021/12/26 19:10:54;;;;;;;10.23;4.60;;;8.90;99.90;;;;;;4897384;29;20275;-73
2021/12/26 19:13:23;;;;;;;9.23;4.73;;;8.90;99.90;;;;;;4897704;29;20234;-73
2021/12/26 19:15:50;;;;;;;8.97;4.87;;;8.80;99.90;;;;;;4899995;29;20222;-78
2021/12/26 19:18:17;;;;;;;8.93;4.77;;;8.90;99.90;;;;;;4901208;29;20211;-76
2021/12/26 19:20:44;;;;;;;9.50;4.53;;;9.00;99.90;;;;;;4901219;29;20735;-80
2021/12/26 19:23:11;;;;;;;8.33;4.47;;;9.10;99.90;;;;;;4901137;29;20207;-69
2021/12/26 19:25:39;;;;;;;9.23;4.87;;;9.10;99.90;;;;;;4901073;29;20218;-70
2021/12/26 19:28:06;;;;;;;8.93;5.57;;;9.00;99.90;;;;;;4900920;29;20210;-71
2021/12/26 19:30:34;;;;;;;8.17;4.80;;;8.80;99.90;;;;;;4900597;29;20830;-78
2021/12/26 19:33:02;;;;;;;12.27;5.07;;;8.90;99.90;;;;;;4890415;29;20215;-75
2021/12/26 19:35:29;;;;;;;8.43;4.77;;;9.00;99.90;;;;;;4892697;29;20468;-80
2021/12/26 19:37:56;;;;;;;6.90;4.27;;;8.90;99.90;;;;;;4896290;29;20210;-73
2021/12/26 19:40:26;;;;;;;8.17;4.20;;;8.90;99.90;;;;;;4891851;29;20253;-75
2021/12/26 19:42:54;;;;;;;7.90;4.53;;;9.00;99.90;;;;;;4889205;29;20678;-71
2021/12/26 19:45:21;;;;;;;9.50;4.83;;;8.90;99.90;;;;;;4897725;29;20218;-76
2021/12/26 19:47:48;;;;;;;6.73;4.20;;;9.00;99.90;;;;;;4896285;29;20295;-69
2021/12/26 19:50:16;;;;;;;8.53;4.27;;;9.00;99.90;;;;;;4886227;29;20238;-69
2021/12/26 19:52:43;;;;;;;7.70;4.57;;;9.00;99.90;;;;;;4891833;29;20220;-69
2021/12/26 19:55:11;;;;;;;8.60;5.03;;;9.00;99.90;;;;;;4891974;29;20705;-68
2021/12/26 19:57:38;;;;;;;8.10;4.87;;;9.10;99.90;;;;;;4893820;29;20206;-69
2021/12/26 20:00:10;;;;;;;7.40;4.87;;;9.10;99.90;;;;;;4888264;29;20242;-69
2021/12/26 20:02:36;;;;;;;7.23;4.13;;;9.20;99.90;;;;;;4888128;29;20211;-79
2021/12/26 20:05:05;;;;;;;7.07;4.40;;;9.30;99.90;;;;;;4883419;29;20653;-69
2021/12/26 20:07:31;;;;;;;9.50;4.40;;;9.30;99.90;;;;;;4895292;29;20210;-77
2021/12/26 20:09:58;;;;;;;6.90;4.17;;;9.40;99.90;;;;;;4893887;29;20316;-78
2021/12/26 20:12:25;;;;;;;7.20;4.20;;;9.40;99.90;;;;;;4885872;29;20211;-77
2021/12/26 20:14:53;;;;;;;8.33;4.70;;;9.40;99.90;;;;;;4889519;29;20238;-80
2021/12/26 20:17:22;;;;;;;8.73;4.63;;;9.50;99.90;;;;;;4893736;29;20214;-78
2021/12/26 20:19:49;;;;;;;7.67;4.23;;;9.30;99.90;;;;;;4893582;29;20254;-78
2021/12/26 20:22:16;;;;;;;9.63;4.23;;;9.30;99.90;;;;;;4889359;29;20211;-79
2021/12/26 20:24:43;;;;;;;6.33;4.30;;;9.30;99.90;;;;;;4890898;29;20217;-80
2021/12/26 20:27:10;;;;;;;8.10;4.50;;;9.20;99.90;;;;;;4890232;29;20653;-79
2021/12/26 20:29:38;;;;;;;6.93;4.47;;;9.00;99.90;;;;;;4888952;29;20246;-79
2021/12/26 20:32:05;;;;;;;9.43;4.33;;;9.10;99.90;;;;;;4896179;29;20552;-79
2021/12/26 20:34:35;;;;;;;9.40;4.57;;;9.20;99.90;;;;;;4884347;29;20710;-80
2021/12/26 20:37:02;;;;;;;7.80;4.00;;;9.20;99.90;;;;;;4893568;29;20274;-78
2021/12/26 20:39:29;;;;;;;7.93;4.23;;;9.20;99.90;;;;;;4890283;29;20207;-77
2021/12/26 20:41:56;;;;;;;8.77;4.10;;;9.20;99.90;;;;;;4893577;29;20206;-80
2021/12/26 20:44:22;;;;;;;9.20;4.60;;;9.20;99.90;;;;;;4891531;29;20211;-71
2021/12/26 20:46:49;;;;;;;9.90;4.27;;;9.20;99.90;;;;;;4890927;29;20694;-80
2021/12/26 20:49:16;;;;;;;6.60;3.83;;;9.20;99.90;;;;;;4897059;29;20214;-78
2021/12/26 20:51:44;;;;;;;8.57;4.43;;;9.10;99.90;;;;;;4890843;29;20222;-76
2021/12/26 20:54:11;;;;;;;7.23;4.20;;;9.20;99.90;;;;;;4892725;29;20231;-78
2021/12/26 20:56:38;;;;;;;7.10;3.90;;;9.10;99.90;;;;;;4891367;29;20215;-72
2021/12/26 20:59:05;;;;;;;7.17;4.00;;;9.10;99.90;;;;;;4887573;29;20210;-80
2021/12/26 21:01:32;;;;;;;9.23;4.47;;;9.00;99.90;;;;;;4889955;29;20594;-78
2021/12/26 21:04:00;;;;;;;7.73;4.10;;;9.00;99.90;;;;;;4891363;29;20681;-70
2021/12/26 21:06:27;;;;;;;9.77;3.97;;;8.90;99.90;;;;;;4887916;29;20571;-69
2021/12/26 21:08:56;;;;;;;7.70;4.30;;;8.90;99.90;;;;;;4894521;29;20573;-80
2021/12/26 21:11:23;;;;;;;6.07;3.83;;;9.00;99.90;;;;;;4888789;29;20234;-68
2021/12/26 21:13:51;;;;;;;6.50;3.83;;;9.00;99.90;;;;;;4886546;29;20238;-80
2021/12/26 21:16:18;;;;;;;7.20;4.00;;;9.10;99.90;;;;;;4889927;29;20246;-73
2021/12/26 21:18:44;;;;;;;7.47;4.47;;;9.10;99.90;;;;;;4887912;29;20856;-80
2021/12/26 21:21:11;;;;;;;8.63;4.37;;;9.00;99.90;;;;;;4895604;29;20238;-69
2021/12/26 21:23:38;;;;;;;7.07;4.03;;;9.00;99.90;;;;;;4889567;29;20211;-79
2021/12/26 21:26:06;;;;;;;7.77;4.43;;;9.00;99.90;;;;;;4883131;29;20662;-77
2021/12/26 21:28:33;;;;;;;6.77;3.87;;;8.90;99.90;;;;;;4883807;29;20219;-76
2021/12/26 21:31:00;;;;;;;7.50;4.50;;;8.80;99.90;;;;;;4896629;29;20721;-68
2021/12/26 21:33:28;;;;;;;5.97;3.70;;;8.90;99.90;;;;;;4887634;29;20217;-79
2021/12/26 21:35:55;;;;;;;6.37;3.33;;;8.80;99.90;;;;;;4887661;29;20239;-77
2021/12/26 21:38:22;;;;;;;11.83;3.60;;;8.70;99.90;;;;;;4891228;29;20589;-68
2021/12/26 21:40:49;;;;;;;5.93;3.30;;;8.70;99.90;;;;;;4889178;29;20234;-70
2021/12/26 21:43:19;;;;;;;8.83;3.80;;;8.70;99.90;;;;;;4885075;29;20216;-68
2021/12/26 21:45:51;;;;;;;11.10;4.03;;;8.60;99.90;;;;;;4887789;29;20226;-80
2021/12/26 21:48:18;;;;;;;6.23;3.30;;;8.60;99.90;;;;;;4886273;29;20616;-70
2021/12/26 21:50:45;;;;;;;8.60;3.40;;;8.60;99.90;;;;;;4888911;29;20250;-70
2021/12/26 21:53:12;;;;;;;7.43;4.17;;;8.60;99.90;;;;;;4885225;29;20210;-68
2021/12/26 21:55:39;;;;;;;7.00;3.47;;;8.70;99.90;;;;;;4888602;29;20243;-68
2021/12/26 21:58:05;;;;;;;7.23;3.60;;;8.70;99.90;;;;;;4887591;29;20217;-72
2021/12/26 22:00:35;;;;;;;8.77;4.23;;;8.70;99.90;;;;;;4884903;29;20235;-69
2021/12/26 22:03:04;;;;;;;8.17;3.90;;;8.80;99.90;;;;;;4884353;29;20215;-68
2021/12/26 22:05:32;;;;;;;6.93;3.57;;;8.90;99.90;;;;;;4885822;29;20218;-78
2021/12/26 22:07:59;;;;;;;8.73;3.67;;;9.00;99.90;;;;;;4891231;29;20585;-68
2021/12/26 22:10:26;;;;;;;10.57;4.00;;;9.00;99.90;;;;;;4891737;29;20227;-68
2021/12/26 22:12:53;;;;;;;7.27;3.33;;;9.00;99.90;;;;;;4887055;29;20215;-68
2021/12/26 22:15:20;;;;;;;7.80;3.53;;;9.00;99.90;;;;;;4879262;29;20239;-68
2021/12/26 22:17:48;;;;;;;8.13;3.30;;;9.00;99.90;;;;;;4878331;29;20215;-68
